sensor_id;sensor_type;location;lat;lon;timestamp;P1;durP1;ratioP1;P2;durP2;ratioP2
68700;SDS011;55682;51.114;5.882;2023-06-26T00:02:16;7.83;;;7.83;;
68700;SDS011;55682;51.114;5.882;2023-06-26T00:04:42;7.73;;;7.73;;
68700;SDS011;55682;51.114;5.882;2023-06-26T00:07:09;7.86;;;7.86;;
68700;SDS011;55682;51.114;5.882;2023-06-26T00:09:35;7.97;;;7.97;;
68700;SDS011;55682;51.114;5.882;2023-06-26T00:12:01;8.27;;;8.27;;
68700;SDS011;55682;51.114;5.882;2023-06-26T00:14:27;7.99;;;7.99;;
68700;SDS011;55682;51.114;5.882;2023-06-26T00:16:53;8.04;;;8.04;;
68700;SDS011;55682;51.114;5.882;2023-06-26T00:19:19;7.84;;;7.84;;
68700;SDS011;55682;51.114;5.882;2023-06-26T00:21:44;7.87;;;7.87;;
68700;SDS011;55682;51.114;5.882;2023-06-26T00:24:12;7.76;;;7.76;;
68700;SDS011;55682;51.114;5.882;2023-06-26T00:26:38;7.93;;;7.93;;
68700;SDS011;55682;51.114;5.882;2023-06-26T00:29:04;7.70;;;7.70;;
68700;SDS011;55682;51.114;5.882;2023-06-26T00:31:30;8.17;;;8.17;;
68700;SDS011;55682;51.114;5.882;2023-06-26T00:33:55;7.57;;;7.57;;
68700;SDS011;55682;51.114;5.882;2023-06-26T00:36:23;7.75;;;7.75;;
68700;SDS011;55682;51.114;5.882;2023-06-26T00:38:51;7.95;;;7.95;;
68700;SDS011;55682;51.114;5.882;2023-06-26T00:41:17;7.93;;;7.93;;
68700;SDS011;55682;51.114;5.882;2023-06-26T00:43:43;7.57;;;7.57;;
68700;SDS011;55682;51.114;5.882;2023-06-26T00:46:10;7.84;;;7.84;;
68700;SDS011;55682;51.114;5.882;2023-06-26T00:48:38;7.94;;;7.94;;
68700;SDS011;55682;51.114;5.882;2023-06-26T00:51:06;7.86;;;7.86;;
68700;SDS011;55682;51.114;5.882;2023-06-26T00:53:33;7.70;;;7.70;;
68700;SDS011;55682;51.114;5.882;2023-06-26T00:55:59;7.33;;;7.33;;
68700;SDS011;55682;51.114;5.882;2023-06-26T00:58:28;8.23;;;8.23;;
68700;SDS011;55682;51.114;5.882;2023-06-26T01:00:56;7.86;;;7.86;;
68700;SDS011;55682;51.114;5.882;2023-06-26T01:03:22;7.94;;;7.94;;
68700;SDS011;55682;51.114;5.882;2023-06-26T01:05:52;8.16;;;8.16;;
68700;SDS011;55682;51.114;5.882;2023-06-26T01:08:24;7.87;;;7.87;;
68700;SDS011;55682;51.114;5.882;2023-06-26T01:10:51;8.22;;;8.22;;
68700;SDS011;55682;51.114;5.882;2023-06-26T01:13:17;8.39;;;8.39;;
68700;SDS011;55682;51.114;5.882;2023-06-26T01:15:44;8.15;;;8.15;;
68700;SDS011;55682;51.114;5.882;2023-06-26T01:18:11;7.96;;;7.96;;
68700;SDS011;55682;51.114;5.882;2023-06-26T01:20:40;8.48;;;8.48;;
68700;SDS011;55682;51.114;5.882;2023-06-26T01:28:41;8.00;;;8.00;;
68700;SDS011;55682;51.114;5.882;2023-06-26T01:31:08;8.20;;;8.20;;
68700;SDS011;55682;51.114;5.882;2023-06-26T01:33:36;7.95;;;7.95;;
68700;SDS011;55682;51.114;5.882;2023-06-26T01:36:03;7.97;;;7.97;;
68700;SDS011;55682;51.114;5.882;2023-06-26T01:38:29;8.54;;;8.54;;
68700;SDS011;55682;51.114;5.882;2023-06-26T01:40:56;8.44;;;8.44;;
68700;SDS011;55682;51.114;5.882;2023-06-26T01:46:10;8.56;;;8.56;;
68700;SDS011;55682;51.114;5.882;2023-06-26T01:48:49;7.90;;;7.90;;
68700;SDS011;55682;51.114;5.882;2023-06-26T01:51:30;8.04;;;8.04;;
68700;SDS011;55682;51.114;5.882;2023-06-26T01:54:00;7.65;;;7.65;;
68700;SDS011;55682;51.114;5.882;2023-06-26T01:56:28;7.77;;;7.77;;
68700;SDS011;55682;51.114;5.882;2023-06-26T01:58:55;7.46;;;7.46;;
68700;SDS011;55682;51.114;5.882;2023-06-26T02:01:22;7.62;;;7.62;;
68700;SDS011;55682;51.114;5.882;2023-06-26T02:03:48;7.45;;;7.45;;
68700;SDS011;55682;51.114;5.882;2023-06-26T02:06:14;7.39;;;7.39;;
68700;SDS011;55682;51.114;5.882;2023-06-26T02:08:39;7.52;;;7.52;;
68700;SDS011;55682;51.114;5.882;2023-06-26T02:11:05;7.34;;;7.34;;
68700;SDS011;55682;51.114;5.882;2023-06-26T02:13:31;7.06;;;7.06;;
68700;SDS011;55682;51.114;5.882;2023-06-26T02:15:57;7.11;;;7.11;;
68700;SDS011;55682;51.114;5.882;2023-06-26T02:18:23;7.27;;;7.27;;
68700;SDS011;55682;51.114;5.882;2023-06-26T02:20:49;6.74;;;6.74;;
68700;SDS011;55682;51.114;5.882;2023-06-26T02:23:15;6.54;;;6.54;;
68700;SDS011;55682;51.114;5.882;2023-06-26T02:25:41;6.64;;;6.64;;
68700;SDS011;55682;51.114;5.882;2023-06-26T02:28:08;6.70;;;6.70;;
68700;SDS011;55682;51.114;5.882;2023-06-26T02:30:35;6.41;;;6.41;;
68700;SDS011;55682;51.114;5.882;2023-06-26T02:33:00;5.82;;;5.82;;
68700;SDS011;55682;51.114;5.882;2023-06-26T02:35:26;5.78;;;5.78;;
68700;SDS011;55682;51.114;5.882;2023-06-26T02:37:52;5.63;;;5.63;;
68700;SDS011;55682;51.114;5.882;2023-06-26T02:40:17;5.51;;;5.51;;
68700;SDS011;55682;51.114;5.882;2023-06-26T02:42:43;5.29;;;5.29;;
68700;SDS011;55682;51.114;5.882;2023-06-26T02:45:09;5.20;;;5.20;;
68700;SDS011;55682;51.114;5.882;2023-06-26T02:47:35;4.98;;;4.98;;
68700;SDS011;55682;51.114;5.882;2023-06-26T02:50:02;4.97;;;4.97;;
68700;SDS011;55682;51.114;5.882;2023-06-26T02:52:39;4.66;;;4.66;;
68700;SDS011;55682;51.114;5.882;2023-06-26T02:55:04;4.81;;;4.81;;
68700;SDS011;55682;51.114;5.882;2023-06-26T02:57:31;4.48;;;4.48;;
68700;SDS011;55682;51.114;5.882;2023-06-26T02:59:57;4.90;;;4.90;;
68700;SDS011;55682;51.114;5.882;2023-06-26T03:02:22;4.82;;;4.82;;
68700;SDS011;55682;51.114;5.882;2023-06-26T03:04:48;4.72;;;4.72;;
68700;SDS011;55682;51.114;5.882;2023-06-26T03:07:15;4.95;;;4.95;;
68700;SDS011;55682;51.114;5.882;2023-06-26T03:09:41;5.29;;;5.29;;
68700;SDS011;55682;51.114;5.882;2023-06-26T03:12:08;5.06;;;5.06;;
68700;SDS011;55682;51.114;5.882;2023-06-26T03:14:34;4.91;;;4.91;;
68700;SDS011;55682;51.114;5.882;2023-06-26T03:17:00;4.85;;;4.85;;
68700;SDS011;55682;51.114;5.882;2023-06-26T03:19:29;4.85;;;4.85;;
68700;SDS011;55682;51.114;5.882;2023-06-26T03:22:15;4.77;;;4.77;;
68700;SDS011;55682;51.114;5.882;2023-06-26T03:24:41;4.65;;;4.65;;
68700;SDS011;55682;51.114;5.882;2023-06-26T03:27:08;4.43;;;4.43;;
68700;SDS011;55682;51.114;5.882;2023-06-26T03:29:35;4.32;;;4.32;;
68700;SDS011;55682;51.114;5.882;2023-06-26T03:32:01;4.49;;;4.49;;
68700;SDS011;55682;51.114;5.882;2023-06-26T03:34:26;4.25;;;4.25;;
68700;SDS011;55682;51.114;5.882;2023-06-26T03:36:53;4.43;;;4.43;;
68700;SDS011;55682;51.114;5.882;2023-06-26T03:39:19;4.36;;;4.36;;
68700;SDS011;55682;51.114;5.882;2023-06-26T03:41:44;4.43;;;4.43;;
68700;SDS011;55682;51.114;5.882;2023-06-26T03:44:10;4.38;;;4.38;;
68700;SDS011;55682;51.114;5.882;2023-06-26T03:46:43;4.84;;;4.84;;
68700;SDS011;55682;51.114;5.882;2023-06-26T03:49:09;4.56;;;4.56;;
68700;SDS011;55682;51.114;5.882;2023-06-26T03:51:36;4.68;;;4.68;;
68700;SDS011;55682;51.114;5.882;2023-06-26T03:54:01;4.51;;;4.51;;
68700;SDS011;55682;51.114;5.882;2023-06-26T03:56:27;4.52;;;4.52;;
68700;SDS011;55682;51.114;5.882;2023-06-26T03:58:53;4.82;;;4.82;;
68700;SDS011;55682;51.114;5.882;2023-06-26T04:01:20;4.69;;;4.69;;
68700;SDS011;55682;51.114;5.882;2023-06-26T04:03:48;4.65;;;4.65;;
68700;SDS011;55682;51.114;5.882;2023-06-26T04:06:15;4.78;;;4.78;;
68700;SDS011;55682;51.114;5.882;2023-06-26T04:08:40;4.37;;;4.37;;
68700;SDS011;55682;51.114;5.882;2023-06-26T04:11:06;4.58;;;4.58;;
68700;SDS011;55682;51.114;5.882;2023-06-26T04:13:32;4.28;;;4.28;;
68700;SDS011;55682;51.114;5.882;2023-06-26T04:15:57;3.92;;;3.92;;
68700;SDS011;55682;51.114;5.882;2023-06-26T04:18:23;4.21;;;4.21;;
68700;SDS011;55682;51.114;5.882;2023-06-26T04:21:05;4.12;;;4.12;;
68700;SDS011;55682;51.114;5.882;2023-06-26T04:23:37;4.19;;;4.19;;
68700;SDS011;55682;51.114;5.882;2023-06-26T04:26:04;4.48;;;4.48;;
68700;SDS011;55682;51.114;5.882;2023-06-26T04:28:31;3.80;;;3.80;;
68700;SDS011;55682;51.114;5.882;2023-06-26T04:30:58;3.95;;;3.95;;
68700;SDS011;55682;51.114;5.882;2023-06-26T04:33:24;4.02;;;3.99;;
68700;SDS011;55682;51.114;5.882;2023-06-26T04:35:51;3.99;;;3.99;;
68700;SDS011;55682;51.114;5.882;2023-06-26T04:38:16;4.27;;;4.27;;
68700;SDS011;55682;51.114;5.882;2023-06-26T04:40:43;3.81;;;3.81;;
68700;SDS011;55682;51.114;5.882;2023-06-26T04:43:09;3.83;;;3.83;;
68700;SDS011;55682;51.114;5.882;2023-06-26T04:45:35;3.75;;;3.75;;
68700;SDS011;55682;51.114;5.882;2023-06-26T04:48:00;3.57;;;3.57;;
68700;SDS011;55682;51.114;5.882;2023-06-26T04:50:26;3.96;;;3.96;;
68700;SDS011;55682;51.114;5.882;2023-06-26T04:52:54;3.91;;;3.91;;
68700;SDS011;55682;51.114;5.882;2023-06-26T04:55:20;3.76;;;3.76;;
68700;SDS011;55682;51.114;5.882;2023-06-26T04:57:46;3.76;;;3.76;;
68700;SDS011;55682;51.114;5.882;2023-06-26T05:00:13;3.45;;;3.45;;
68700;SDS011;55682;51.114;5.882;2023-06-26T05:02:40;3.76;;;3.76;;
68700;SDS011;55682;51.114;5.882;2023-06-26T05:05:06;3.49;;;3.49;;
68700;SDS011;55682;51.114;5.882;2023-06-26T05:07:32;3.59;;;3.59;;
68700;SDS011;55682;51.114;5.882;2023-06-26T05:09:57;3.40;;;3.40;;
68700;SDS011;55682;51.114;5.882;2023-06-26T05:12:23;3.31;;;3.31;;
68700;SDS011;55682;51.114;5.882;2023-06-26T05:14:49;3.44;;;3.44;;
68700;SDS011;55682;51.114;5.882;2023-06-26T05:17:14;3.09;;;3.09;;
68700;SDS011;55682;51.114;5.882;2023-06-26T05:19:40;3.24;;;3.24;;
68700;SDS011;55682;51.114;5.882;2023-06-26T05:22:06;3.70;;;3.70;;
68700;SDS011;55682;51.114;5.882;2023-06-26T05:24:36;3.32;;;3.32;;
68700;SDS011;55682;51.114;5.882;2023-06-26T05:27:03;3.35;;;3.35;;
68700;SDS011;55682;51.114;5.882;2023-06-26T05:29:30;3.33;;;3.33;;
68700;SDS011;55682;51.114;5.882;2023-06-26T05:31:57;3.57;;;3.57;;
68700;SDS011;55682;51.114;5.882;2023-06-26T05:34:23;3.67;;;3.66;;
68700;SDS011;55682;51.114;5.882;2023-06-26T05:36:51;3.47;;;3.47;;
68700;SDS011;55682;51.114;5.882;2023-06-26T05:39:17;3.49;;;3.48;;
68700;SDS011;55682;51.114;5.882;2023-06-26T05:41:44;3.41;;;3.40;;
68700;SDS011;55682;51.114;5.882;2023-06-26T05:44:10;3.73;;;3.72;;
68700;SDS011;55682;51.114;5.882;2023-06-26T05:46:35;3.60;;;3.59;;
68700;SDS011;55682;51.114;5.882;2023-06-26T05:49:01;3.59;;;3.58;;
68700;SDS011;55682;51.114;5.882;2023-06-26T05:51:27;3.33;;;3.33;;
68700;SDS011;55682;51.114;5.882;2023-06-26T05:53:54;3.04;;;3.04;;
68700;SDS011;55682;51.114;5.882;2023-06-26T05:56:19;3.35;;;3.35;;
68700;SDS011;55682;51.114;5.882;2023-06-26T05:58:46;3.12;;;3.12;;
68700;SDS011;55682;51.114;5.882;2023-06-26T06:01:12;3.13;;;3.13;;
68700;SDS011;55682;51.114;5.882;2023-06-26T06:03:39;3.13;;;3.13;;
68700;SDS011;55682;51.114;5.882;2023-06-26T06:06:05;3.03;;;3.03;;
68700;SDS011;55682;51.114;5.882;2023-06-26T06:08:31;3.31;;;3.30;;
68700;SDS011;55682;51.114;5.882;2023-06-26T06:10:57;3.19;;;3.19;;
68700;SDS011;55682;51.114;5.882;2023-06-26T06:13:24;2.92;;;2.91;;
68700;SDS011;55682;51.114;5.882;2023-06-26T06:15:50;3.06;;;3.05;;
68700;SDS011;55682;51.114;5.882;2023-06-26T06:18:16;2.94;;;2.93;;
68700;SDS011;55682;51.114;5.882;2023-06-26T06:20:41;3.02;;;3.00;;
68700;SDS011;55682;51.114;5.882;2023-06-26T06:23:07;3.08;;;3.06;;
68700;SDS011;55682;51.114;5.882;2023-06-26T06:25:33;2.99;;;2.97;;
68700;SDS011;55682;51.114;5.882;2023-06-26T06:27:58;3.00;;;2.99;;
68700;SDS011;55682;51.114;5.882;2023-06-26T06:30:24;2.87;;;2.86;;
68700;SDS011;55682;51.114;5.882;2023-06-26T06:32:50;2.88;;;2.87;;
68700;SDS011;55682;51.114;5.882;2023-06-26T06:35:20;2.90;;;2.89;;
68700;SDS011;55682;51.114;5.882;2023-06-26T06:37:46;2.99;;;2.98;;
68700;SDS011;55682;51.114;5.882;2023-06-26T06:40:12;2.78;;;2.77;;
68700;SDS011;55682;51.114;5.882;2023-06-26T06:42:37;3.03;;;3.00;;
68700;SDS011;55682;51.114;5.882;2023-06-26T06:45:03;3.10;;;3.07;;
68700;SDS011;55682;51.114;5.882;2023-06-26T06:47:31;2.82;;;2.82;;
68700;SDS011;55682;51.114;5.882;2023-06-26T06:49:58;2.98;;;2.95;;
68700;SDS011;55682;51.114;5.882;2023-06-26T06:52:24;2.76;;;2.72;;
68700;SDS011;55682;51.114;5.882;2023-06-26T06:54:53;2.76;;;2.73;;
68700;SDS011;55682;51.114;5.882;2023-06-26T06:57:20;2.77;;;2.77;;
68700;SDS011;55682;51.114;5.882;2023-06-26T06:59:47;3.18;;;3.18;;
68700;SDS011;55682;51.114;5.882;2023-06-26T07:02:14;2.90;;;2.89;;
68700;SDS011;55682;51.114;5.882;2023-06-26T07:04:41;3.13;;;3.13;;
68700;SDS011;55682;51.114;5.882;2023-06-26T07:07:07;2.96;;;2.96;;
68700;SDS011;55682;51.114;5.882;2023-06-26T07:09:33;2.58;;;2.58;;
68700;SDS011;55682;51.114;5.882;2023-06-26T07:11:59;2.91;;;2.91;;
68700;SDS011;55682;51.114;5.882;2023-06-26T07:14:25;2.89;;;2.89;;
68700;SDS011;55682;51.114;5.882;2023-06-26T07:16:51;2.80;;;2.78;;
68700;SDS011;55682;51.114;5.882;2023-06-26T07:19:16;2.92;;;2.87;;
68700;SDS011;55682;51.114;5.882;2023-06-26T07:21:42;2.95;;;2.91;;
68700;SDS011;55682;51.114;5.882;2023-06-26T07:24:09;2.95;;;2.92;;
68700;SDS011;55682;51.114;5.882;2023-06-26T07:26:36;2.92;;;2.89;;
68700;SDS011;55682;51.114;5.882;2023-06-26T07:29:01;2.71;;;2.69;;
68700;SDS011;55682;51.114;5.882;2023-06-26T07:31:27;2.60;;;2.60;;
68700;SDS011;55682;51.114;5.882;2023-06-26T07:33:52;2.79;;;2.79;;
68700;SDS011;55682;51.114;5.882;2023-06-26T07:36:18;3.02;;;3.02;;
68700;SDS011;55682;51.114;5.882;2023-06-26T07:38:44;2.97;;;2.97;;
68700;SDS011;55682;51.114;5.882;2023-06-26T07:41:10;3.03;;;3.03;;
68700;SDS011;55682;51.114;5.882;2023-06-26T07:43:35;2.90;;;2.90;;
68700;SDS011;55682;51.114;5.882;2023-06-26T07:46:01;2.96;;;2.96;;
68700;SDS011;55682;51.114;5.882;2023-06-26T07:48:26;3.28;;;3.28;;
68700;SDS011;55682;51.114;5.882;2023-06-26T07:50:52;3.04;;;3.04;;
68700;SDS011;55682;51.114;5.882;2023-06-26T07:53:18;2.97;;;2.97;;
68700;SDS011;55682;51.114;5.882;2023-06-26T07:55:44;2.89;;;2.89;;
68700;SDS011;55682;51.114;5.882;2023-06-26T07:58:10;3.01;;;3.01;;
68700;SDS011;55682;51.114;5.882;2023-06-26T08:00:36;3.15;;;3.15;;
68700;SDS011;55682;51.114;5.882;2023-06-26T08:03:02;3.47;;;3.47;;
68700;SDS011;55682;51.114;5.882;2023-06-26T08:05:28;3.15;;;3.15;;
68700;SDS011;55682;51.114;5.882;2023-06-26T08:07:54;3.12;;;3.12;;
68700;SDS011;55682;51.114;5.882;2023-06-26T08:10:19;3.55;;;3.55;;
68700;SDS011;55682;51.114;5.882;2023-06-26T08:12:45;3.61;;;3.61;;
68700;SDS011;55682;51.114;5.882;2023-06-26T08:15:12;3.58;;;3.58;;
68700;SDS011;55682;51.114;5.882;2023-06-26T08:17:37;3.58;;;3.58;;
68700;SDS011;55682;51.114;5.882;2023-06-26T08:20:04;3.65;;;3.65;;
68700;SDS011;55682;51.114;5.882;2023-06-26T08:22:33;3.76;;;3.76;;
68700;SDS011;55682;51.114;5.882;2023-06-26T08:24:59;3.51;;;3.51;;
68700;SDS011;55682;51.114;5.882;2023-06-26T08:27:24;3.26;;;3.26;;
68700;SDS011;55682;51.114;5.882;2023-06-26T08:29:50;3.31;;;3.31;;
68700;SDS011;55682;51.114;5.882;2023-06-26T08:32:16;3.24;;;3.24;;
68700;SDS011;55682;51.114;5.882;2023-06-26T08:34:42;3.67;;;3.67;;
68700;SDS011;55682;51.114;5.882;2023-06-26T08:37:07;3.37;;;3.37;;
68700;SDS011;55682;51.114;5.882;2023-06-26T08:39:34;3.78;;;3.78;;
68700;SDS011;55682;51.114;5.882;2023-06-26T08:42:00;3.14;;;3.14;;
68700;SDS011;55682;51.114;5.882;2023-06-26T08:44:26;3.35;;;3.35;;
68700;SDS011;55682;51.114;5.882;2023-06-26T08:46:52;3.54;;;3.54;;
68700;SDS011;55682;51.114;5.882;2023-06-26T08:49:21;3.38;;;3.38;;
68700;SDS011;55682;51.114;5.882;2023-06-26T08:51:57;3.21;;;3.21;;
68700;SDS011;55682;51.114;5.882;2023-06-26T08:54:34;3.31;;;3.31;;
68700;SDS011;55682;51.114;5.882;2023-06-26T08:57:05;3.07;;;3.07;;
68700;SDS011;55682;51.114;5.882;2023-06-26T08:59:32;2.75;;;2.75;;
68700;SDS011;55682;51.114;5.882;2023-06-26T09:01:58;2.61;;;2.61;;
68700;SDS011;55682;51.114;5.882;2023-06-26T09:04:24;2.71;;;2.71;;
68700;SDS011;55682;51.114;5.882;2023-06-26T09:06:50;2.73;;;2.73;;
68700;SDS011;55682;51.114;5.882;2023-06-26T09:09:16;2.53;;;2.53;;
68700;SDS011;55682;51.114;5.882;2023-06-26T09:11:41;2.43;;;2.43;;
68700;SDS011;55682;51.114;5.882;2023-06-26T09:14:07;2.34;;;2.34;;
68700;SDS011;55682;51.114;5.882;2023-06-26T09:16:41;2.31;;;2.31;;
68700;SDS011;55682;51.114;5.882;2023-06-26T09:19:11;2.56;;;2.56;;
68700;SDS011;55682;51.114;5.882;2023-06-26T09:21:41;2.76;;;2.76;;
68700;SDS011;55682;51.114;5.882;2023-06-26T09:24:08;2.20;;;2.20;;
68700;SDS011;55682;51.114;5.882;2023-06-26T09:26:35;2.15;;;2.15;;
68700;SDS011;55682;51.114;5.882;2023-06-26T09:29:02;2.39;;;2.39;;
68700;SDS011;55682;51.114;5.882;2023-06-26T09:31:29;2.01;;;2.01;;
68700;SDS011;55682;51.114;5.882;2023-06-26T09:33:55;1.91;;;1.91;;
68700;SDS011;55682;51.114;5.882;2023-06-26T09:36:26;2.02;;;2.02;;
68700;SDS011;55682;51.114;5.882;2023-06-26T09:39:02;1.93;;;1.93;;
68700;SDS011;55682;51.114;5.882;2023-06-26T09:41:29;1.58;;;1.58;;
68700;SDS011;55682;51.114;5.882;2023-06-26T09:43:57;1.58;;;1.58;;
68700;SDS011;55682;51.114;5.882;2023-06-26T09:46:28;1.49;;;1.49;;
68700;SDS011;55682;51.114;5.882;2023-06-26T09:49:02;1.45;;;1.45;;
68700;SDS011;55682;51.114;5.882;2023-06-26T09:51:39;1.50;;;1.50;;
68700;SDS011;55682;51.114;5.882;2023-06-26T09:54:05;1.65;;;1.65;;
68700;SDS011;55682;51.114;5.882;2023-06-26T09:56:32;1.54;;;1.54;;
68700;SDS011;55682;51.114;5.882;2023-06-26T09:59:00;1.36;;;1.36;;
68700;SDS011;55682;51.114;5.882;2023-06-26T10:01:30;1.64;;;1.64;;
68700;SDS011;55682;51.114;5.882;2023-06-26T10:03:57;1.53;;;1.53;;
68700;SDS011;55682;51.114;5.882;2023-06-26T10:06:45;1.51;;;1.51;;
68700;SDS011;55682;51.114;5.882;2023-06-26T10:09:15;1.87;;;1.87;;
68700;SDS011;55682;51.114;5.882;2023-06-26T10:11:47;1.53;;;1.53;;
68700;SDS011;55682;51.114;5.882;2023-06-26T10:14:21;1.57;;;1.57;;
68700;SDS011;55682;51.114;5.882;2023-06-26T10:16:52;1.91;;;1.91;;
68700;SDS011;55682;51.114;5.882;2023-06-26T10:19:23;1.84;;;1.84;;
68700;SDS011;55682;51.114;5.882;2023-06-26T10:21:53;1.79;;;1.79;;
68700;SDS011;55682;51.114;5.882;2023-06-26T10:24:21;1.66;;;1.66;;
68700;SDS011;55682;51.114;5.882;2023-06-26T10:26:49;1.77;;;1.77;;
68700;SDS011;55682;51.114;5.882;2023-06-26T10:29:20;1.94;;;1.94;;
68700;SDS011;55682;51.114;5.882;2023-06-26T10:31:50;1.74;;;1.74;;
68700;SDS011;55682;51.114;5.882;2023-06-26T10:34:19;1.56;;;1.56;;
68700;SDS011;55682;51.114;5.882;2023-06-26T10:36:46;1.65;;;1.65;;
68700;SDS011;55682;51.114;5.882;2023-06-26T10:39:13;1.50;;;1.50;;
68700;SDS011;55682;51.114;5.882;2023-06-26T10:41:40;1.49;;;1.49;;
68700;SDS011;55682;51.114;5.882;2023-06-26T10:44:15;1.43;;;1.43;;
68700;SDS011;55682;51.114;5.882;2023-06-26T10:46:52;1.25;;;1.25;;
68700;SDS011;55682;51.114;5.882;2023-06-26T10:49:20;1.23;;;1.23;;
68700;SDS011;55682;51.114;5.882;2023-06-26T10:51:50;1.15;;;1.15;;
68700;SDS011;55682;51.114;5.882;2023-06-26T10:54:17;1.01;;;1.01;;
68700;SDS011;55682;51.114;5.882;2023-06-26T10:56:51;1.07;;;1.07;;
68700;SDS011;55682;51.114;5.882;2023-06-26T10:59:24;0.86;;;0.86;;
68700;SDS011;55682;51.114;5.882;2023-06-26T11:01:58;1.15;;;1.15;;
68700;SDS011;55682;51.114;5.882;2023-06-26T11:04:36;1.06;;;1.06;;
68700;SDS011;55682;51.114;5.882;2023-06-26T11:15:11;1.20;;;1.20;;
68700;SDS011;55682;51.114;5.882;2023-06-26T11:17:38;1.15;;;1.15;;
68700;SDS011;55682;51.114;5.882;2023-06-26T11:20:05;1.08;;;1.08;;
68700;SDS011;55682;51.114;5.882;2023-06-26T11:22:36;1.02;;;1.02;;
68700;SDS011;55682;51.114;5.882;2023-06-26T11:25:04;0.93;;;0.93;;
68700;SDS011;55682;51.114;5.882;2023-06-26T11:27:38;0.96;;;0.96;;
68700;SDS011;55682;51.114;5.882;2023-06-26T11:30:11;1.02;;;1.02;;
68700;SDS011;55682;51.114;5.882;2023-06-26T11:32:48;1.13;;;1.13;;
68700;SDS011;55682;51.114;5.882;2023-06-26T11:35:21;0.92;;;0.92;;
68700;SDS011;55682;51.114;5.882;2023-06-26T11:37:55;1.10;;;1.10;;
68700;SDS011;55682;51.114;5.882;2023-06-26T11:40:22;0.92;;;0.92;;
68700;SDS011;55682;51.114;5.882;2023-06-26T11:42:55;0.94;;;0.93;;
68700;SDS011;55682;51.114;5.882;2023-06-26T11:45:20;1.05;;;1.04;;
68700;SDS011;55682;51.114;5.882;2023-06-26T11:47:46;0.98;;;0.97;;
68700;SDS011;55682;51.114;5.882;2023-06-26T11:50:15;1.11;;;1.11;;
68700;SDS011;55682;51.114;5.882;2023-06-26T11:52:42;0.90;;;0.90;;
68700;SDS011;55682;51.114;5.882;2023-06-26T11:55:09;0.96;;;0.96;;
68700;SDS011;55682;51.114;5.882;2023-06-26T11:57:36;1.11;;;1.11;;
68700;SDS011;55682;51.114;5.882;2023-06-26T12:00:14;1.21;;;1.21;;
68700;SDS011;55682;51.114;5.882;2023-06-26T12:02:41;1.11;;;1.11;;
68700;SDS011;55682;51.114;5.882;2023-06-26T12:05:11;1.07;;;1.07;;
68700;SDS011;55682;51.114;5.882;2023-06-26T12:07:39;1.18;;;1.17;;
68700;SDS011;55682;51.114;5.882;2023-06-26T12:10:07;0.97;;;0.95;;
68700;SDS011;55682;51.114;5.882;2023-06-26T12:12:39;1.05;;;1.04;;
68700;SDS011;55682;51.114;5.882;2023-06-26T12:15:06;1.14;;;1.12;;
68700;SDS011;55682;51.114;5.882;2023-06-26T12:17:33;1.09;;;1.09;;
68700;SDS011;55682;51.114;5.882;2023-06-26T12:20:04;1.10;;;1.09;;
68700;SDS011;55682;51.114;5.882;2023-06-26T12:22:34;1.12;;;1.10;;
68700;SDS011;55682;51.114;5.882;2023-06-26T12:25:00;1.02;;;1.02;;
68700;SDS011;55682;51.114;5.882;2023-06-26T12:27:26;1.06;;;1.06;;
68700;SDS011;55682;51.114;5.882;2023-06-26T12:29:53;1.17;;;1.16;;
68700;SDS011;55682;51.114;5.882;2023-06-26T12:32:21;1.06;;;1.06;;
68700;SDS011;55682;51.114;5.882;2023-06-26T12:34:49;1.07;;;1.06;;
68700;SDS011;55682;51.114;5.882;2023-06-26T12:37:16;1.12;;;1.12;;
68700;SDS011;55682;51.114;5.882;2023-06-26T12:39:52;1.17;;;1.17;;
68700;SDS011;55682;51.114;5.882;2023-06-26T12:42:20;1.18;;;1.18;;
68700;SDS011;55682;51.114;5.882;2023-06-26T12:44:46;1.28;;;1.27;;
68700;SDS011;55682;51.114;5.882;2023-06-26T12:47:13;1.26;;;1.25;;
68700;SDS011;55682;51.114;5.882;2023-06-26T12:49:41;1.13;;;1.13;;
68700;SDS011;55682;51.114;5.882;2023-06-26T12:52:08;1.20;;;1.20;;
68700;SDS011;55682;51.114;5.882;2023-06-26T12:54:37;1.17;;;1.17;;
68700;SDS011;55682;51.114;5.882;2023-06-26T12:57:04;1.03;;;1.03;;
68700;SDS011;55682;51.114;5.882;2023-06-26T12:59:31;1.15;;;1.15;;
68700;SDS011;55682;51.114;5.882;2023-06-26T13:01:58;1.32;;;1.32;;
68700;SDS011;55682;51.114;5.882;2023-06-26T13:04:25;1.23;;;1.23;;
68700;SDS011;55682;51.114;5.882;2023-06-26T13:06:51;1.22;;;1.22;;
68700;SDS011;55682;51.114;5.882;2023-06-26T13:09:17;1.17;;;1.17;;
68700;SDS011;55682;51.114;5.882;2023-06-26T13:11:43;1.06;;;1.06;;
68700;SDS011;55682;51.114;5.882;2023-06-26T13:14:09;1.08;;;1.08;;
68700;SDS011;55682;51.114;5.882;2023-06-26T13:16:36;1.06;;;1.06;;
68700;SDS011;55682;51.114;5.882;2023-06-26T13:19:02;1.07;;;1.07;;
68700;SDS011;55682;51.114;5.882;2023-06-26T13:21:27;1.02;;;1.02;;
68700;SDS011;55682;51.114;5.882;2023-06-26T13:23:54;1.08;;;1.08;;
68700;SDS011;55682;51.114;5.882;2023-06-26T13:26:21;1.13;;;1.13;;
68700;SDS011;55682;51.114;5.882;2023-06-26T13:28:47;1.00;;;1.00;;
68700;SDS011;55682;51.114;5.882;2023-06-26T13:31:14;1.02;;;1.01;;
68700;SDS011;55682;51.114;5.882;2023-06-26T13:33:40;1.10;;;1.07;;
68700;SDS011;55682;51.114;5.882;2023-06-26T13:36:05;1.22;;;1.18;;
68700;SDS011;55682;51.114;5.882;2023-06-26T13:38:35;1.18;;;1.14;;
68700;SDS011;55682;51.114;5.882;2023-06-26T13:41:01;1.02;;;1.01;;
68700;SDS011;55682;51.114;5.882;2023-06-26T13:43:27;1.01;;;1.01;;
68700;SDS011;55682;51.114;5.882;2023-06-26T13:45:54;0.98;;;0.98;;
68700;SDS011;55682;51.114;5.882;2023-06-26T13:48:19;1.07;;;1.07;;
68700;SDS011;55682;51.114;5.882;2023-06-26T13:50:45;1.04;;;1.03;;
68700;SDS011;55682;51.114;5.882;2023-06-26T13:53:12;1.18;;;1.16;;
68700;SDS011;55682;51.114;5.882;2023-06-26T13:55:38;1.06;;;1.03;;
68700;SDS011;55682;51.114;5.882;2023-06-26T13:58:05;1.15;;;1.13;;
68700;SDS011;55682;51.114;5.882;2023-06-26T14:00:31;0.98;;;0.98;;
68700;SDS011;55682;51.114;5.882;2023-06-26T14:03:01;0.91;;;0.91;;
68700;SDS011;55682;51.114;5.882;2023-06-26T14:05:35;0.93;;;0.93;;
68700;SDS011;55682;51.114;5.882;2023-06-26T14:08:02;0.95;;;0.95;;
68700;SDS011;55682;51.114;5.882;2023-06-26T14:10:29;1.00;;;1.00;;
68700;SDS011;55682;51.114;5.882;2023-06-26T14:12:56;0.95;;;0.95;;
68700;SDS011;55682;51.114;5.882;2023-06-26T14:15:21;0.98;;;0.98;;
68700;SDS011;55682;51.114;5.882;2023-06-26T14:17:47;0.96;;;0.96;;
68700;SDS011;55682;51.114;5.882;2023-06-26T14:20:15;0.96;;;0.96;;
68700;SDS011;55682;51.114;5.882;2023-06-26T14:22:42;0.98;;;0.98;;
68700;SDS011;55682;51.114;5.882;2023-06-26T14:25:09;0.94;;;0.94;;
68700;SDS011;55682;51.114;5.882;2023-06-26T14:27:36;1.10;;;1.10;;
68700;SDS011;55682;51.114;5.882;2023-06-26T14:30:02;1.02;;;1.02;;
68700;SDS011;55682;51.114;5.882;2023-06-26T14:32:29;0.92;;;0.92;;
68700;SDS011;55682;51.114;5.882;2023-06-26T14:34:56;0.98;;;0.97;;
68700;SDS011;55682;51.114;5.882;2023-06-26T14:37:22;0.97;;;0.97;;
68700;SDS011;55682;51.114;5.882;2023-06-26T14:39:48;1.15;;;1.15;;
68700;SDS011;55682;51.114;5.882;2023-06-26T14:42:14;0.99;;;0.99;;
68700;SDS011;55682;51.114;5.882;2023-06-26T14:44:40;1.16;;;1.16;;
68700;SDS011;55682;51.114;5.882;2023-06-26T14:47:05;0.98;;;0.98;;
68700;SDS011;55682;51.114;5.882;2023-06-26T14:49:31;1.06;;;1.06;;
68700;SDS011;55682;51.114;5.882;2023-06-26T14:51:57;0.98;;;0.98;;
68700;SDS011;55682;51.114;5.882;2023-06-26T14:54:23;1.14;;;1.14;;
68700;SDS011;55682;51.114;5.882;2023-06-26T14:56:49;1.18;;;1.18;;
68700;SDS011;55682;51.114;5.882;2023-06-26T14:59:14;1.15;;;1.15;;
68700;SDS011;55682;51.114;5.882;2023-06-26T15:01:40;1.17;;;1.17;;
68700;SDS011;55682;51.114;5.882;2023-06-26T15:04:06;1.26;;;1.26;;
68700;SDS011;55682;51.114;5.882;2023-06-26T15:06:32;1.33;;;1.33;;